Thomastown, Minnesota
Current Conditions -  °F | °C
As of 11:53 PM on Sunday 28 Dec 2014 (Local Time) from KSAZ Reporting Station
Clear Clear  
Wind Chill: -10°   Ceiling: Unl
Heat Index:   Visibility: 10mi
Dew Point: -6°   Wind: 5mph
Humidity: 78%   Direction: 360°N
Pressure: 30.39"   Gusts: NA
Location:  46.4671°N, 94.8901°W
Report Text: KSAZ 290553Z AUTO 36004KT 10SM CLR M18/M21 A3039 RMK AO2
Loading
Personal Weather Stations






























Interactive Weather Map New forecast layout! Learn more

10-Day Weather Forecast

Advertisements
Track Severe Weather on mobile